Share

Dubois, IN (47527)

11:50 AM EDT on April 23, 2014 (GMT -0400)
Kellerville (KINDUBOI2) Elev 643 ft | 38.48 °N, 86.83 °W | Change Station

Current weather conditions updated 1 minute ago

Clear
Clear
53.6 °F
Feels Like 53.6 °F
N
2.0
Wind Variable Wind from East
Gusts 3.0 mph
Sunrise 7:00 AM
Sunset 8:31 PM
Moon Waning Crescent

Today is forecast to be nearly the same temperature as yesterday.

Pressure 30.14 in
Visibility 10.0 miles
Clouds Clear
Dew Point 36 °F
Humidity 51%
Rainfall 0.00 in
Snow Depth Not available.
UV 8 out of 16
Pollen 9.90 out of 12
Air Quality Not available.
Flu Activity Sporadic
METAR KHNB 231535Z AUTO 32005KT 10SM CLR 12/01 A3014 RMK AO1

More Conditions Fewer Conditions

Pressure 30.14 in
Visibility 10.0 miles
Clouds Clear
Dew Point 36 °F
Humidity 51%
Rainfall 0.00 in
Snow Depth Not available.
UV 8 out of 16
Pollen 9.90 out of 12
Air Quality Not available.
Flu Activity Sporadic
METAR KHNB 231535Z AUTO 32005KT 10SM CLR 12/01 A3014 RMK AO1

More Conditions Fewer Conditions

10-Day Weather Forecast

Almanac

Astronomy

Apr. 23, 2014 Rise Set
Actual Time 7:00 AM EDT 8:31 PM EDT
Civil Twilight 6:32 AM EDT 8:59 PM EDT
Nautical Twilight 5:58 AM EDT 9:33 PM EDT
Astronomical Twilight 5:23 AM EDT 10:08 PM EDT
Moon 3:26 AM EDT 2:43 PM EDT
Length of Visible Light 14h 27m
Length of Day
13h 31m
Tomorrow will be 2m 16s longer.
Waning Crescent, 35% of the Moon is Illuminated
Today
Waning Crescent
Apr 29
New
May 6
First Quarter
May 14
Full
May 21
Last Quarter

Today's Extremes

State Highs State Lows

Community

  • spring flowers
    spring flowers
  • Earth Day Spectrum Ove' Blue
    Earth Day Spectrum Ove' Blue
  • BARN B&W
    BARN B&W
  • April Sunset
    April Sunset
  • Waiting..
    Waiting..

WunderPhotos

Upload Photos

1,704,316 photos uploaded!

Nearby

Snow Depth

Station Depth Elevation
No new snow has been reported.

Coastal Water Temperatures

Place Temperature
No Stations Reporting

Earthquake Activity

City Distance Mag. Time & Date
No recent earthquake activity has been reported nearby.
Minimum magnitude displayed is 2.5.

Nearby Weather Stations

Station Location Temp. Dew Point Humidity Wind Precip. Elev Updated Type
Kellerville, Dubois, IN 53.6 °F 36 °F 51% East  at  2.0 mph 0.00 in / hr 643 ft 11:48 AM EDT Normal
Rusk Indiana, Shoals, IN 58.1 °F 34 °F 40% West  at  2.2 mph 0.00 in / hr 669 ft 11:49 AM EDT Rapid Fire
Jasper, IN 54.9 °F 32 °F 42% WNW  at  3.0 mph 0.00 in / hr 509 ft 11:50 AM EDT Normal
Babcock Addition, Paoli, IN 52.8 °F 32 °F 45% NNE  at  5.0 mph 0.00 in / hr 679 ft 11:45 AM EDT Normal
RAWS TIPSAW LAKE IN, Leopold, IN 57 °F 29 °F 34% NNW  at  4 mph 0.00 in / hr 717 ft 10:11 AM CDT MADIS

Show More Stations Show Fewer Stations

What do you think?

We're not finished. Please let us know what you like, what you don't like, and what you are still missing.